Time;durP1;ratioP1;P1;durP2;ratioP2;P2;SDS_P1;SDS_P2;PMS_P1;PMS_P2;Temp;Humidity;BMP_temperature;BMP_pressure;BME280_temperature;BME280_humidity;BME280_pressure;Samples;Min_cycle;Max_cycle;Signal;HPM_P1;HPM_P2
2024/01/17 00:00:42;;;;;;;13.80;8.97;;;-4.50;94.90;;;;;;5081732;28;20205;-81
2024/01/17 00:03:09;;;;;;;15.47;8.77;;;-4.50;94.80;;;;;;5061623;28;20200;-80
2024/01/17 00:05:36;;;;;;;13.10;8.17;;;-4.50;94.90;;;;;;5084036;28;20664;-81
2024/01/17 00:08:03;;;;;;;13.63;8.33;;;-4.40;94.80;;;;;;5080203;28;20192;-81
2024/01/17 00:10:30;;;;;;;13.87;8.57;;;-4.40;94.70;;;;;;5081138;28;20221;-80
2024/01/17 00:12:58;;;;;;;14.70;8.00;;;-4.20;94.70;;;;;;5083047;28;20223;-81
2024/01/17 00:15:25;;;;;;;13.13;8.27;;;-4.20;94.20;;;;;;5080094;28;20669;-81
2024/01/17 00:17:51;;;;;;;11.30;7.80;;;-4.10;94.00;;;;;;5067345;28;20213;-80
2024/01/17 00:20:18;;;;;;;11.53;7.50;;;-4.10;94.00;;;;;;5082953;28;20822;-80
2024/01/17 00:22:45;;;;;;;12.63;7.73;;;-4.10;93.70;;;;;;5082428;28;20224;-80
2024/01/17 00:25:12;;;;;;;10.40;7.30;;;-3.90;93.90;;;;;;5080231;28;20251;-79
2024/01/17 00:27:41;;;;;;;12.60;7.17;;;-3.90;93.20;;;;;;5080260;28;20677;-80
2024/01/17 00:30:12;;;;;;;14.40;8.07;;;-3.80;93.20;;;;;;5085430;28;20659;-79
2024/01/17 00:32:39;;;;;;;13.77;7.77;;;-3.80;93.20;;;;;;5087546;28;20274;-82
2024/01/17 00:35:09;;;;;;;15.50;8.37;;;-3.80;93.20;;;;;;5080935;28;20571;-79
2024/01/17 00:37:36;;;;;;;13.00;7.57;;;-3.80;93.20;;;;;;5081768;28;20655;-79
2024/01/17 00:40:03;;;;;;;11.40;6.57;;;-3.60;93.30;;;;;;5075892;28;20758;-79
2024/01/17 00:42:30;;;;;;;11.17;6.87;;;-3.50;92.70;;;;;;5074678;28;20555;-78
2024/01/17 00:44:56;;;;;;;9.70;6.70;;;-3.40;92.50;;;;;;5077733;28;20236;-79
2024/01/17 00:47:25;;;;;;;11.87;7.00;;;-3.40;92.20;;;;;;5080392;28;20653;-79
2024/01/17 00:49:52;;;;;;;10.53;6.73;;;-3.40;92.20;;;;;;5076625;28;20306;-79
2024/01/17 00:52:18;;;;;;;17.67;7.73;;;-3.20;92.30;;;;;;5073714;28;20224;-79
2024/01/17 00:54:45;;;;;;;12.10;7.03;;;-3.30;92.00;;;;;;5081470;28;20229;-79
2024/01/17 00:57:12;;;;;;;11.40;6.83;;;-3.30;92.20;;;;;;5078809;28;20201;-80
2024/01/17 00:59:39;;;;;;;10.33;6.17;;;-3.30;92.40;;;;;;5079213;28;20557;-79
2024/01/17 01:02:06;;;;;;;10.60;7.00;;;-3.30;92.20;;;;;;5087174;28;20292;-78
2024/01/17 01:04:34;;;;;;;10.40;6.77;;;-3.30;92.30;;;;;;5074649;28;20213;-79
2024/01/17 01:07:01;;;;;;;11.43;6.83;;;-3.30;92.70;;;;;;5082389;28;20202;-79
2024/01/17 01:09:28;;;;;;;12.23;6.80;;;-3.30;93.00;;;;;;5076974;28;20193;-79
2024/01/17 01:11:54;;;;;;;9.33;6.20;;;-3.30;93.30;;;;;;5077020;28;20217;-80
2024/01/17 01:14:21;;;;;;;9.03;6.50;;;-3.10;93.40;;;;;;5075513;28;20201;-80
2024/01/17 01:16:48;;;;;;;9.53;5.97;;;-2.80;92.70;;;;;;5084397;28;20192;-79
2024/01/17 01:19:15;;;;;;;11.33;6.87;;;-2.70;91.80;;;;;;5083181;28;20219;-78
2024/01/17 01:21:43;;;;;;;8.23;5.63;;;-2.80;91.70;;;;;;5088227;28;20254;-79
2024/01/17 01:24:10;;;;;;;9.93;5.93;;;-2.80;92.40;;;;;;5062088;28;20665;-80
2024/01/17 01:26:37;;;;;;;10.80;6.43;;;-2.70;92.20;;;;;;5079023;28;20205;-79
2024/01/17 01:29:04;;;;;;;10.20;6.30;;;-2.60;92.20;;;;;;5092287;28;20205;-79
2024/01/17 01:31:31;;;;;;;9.47;6.27;;;-2.70;92.10;;;;;;5085162;28;20221;-79
2024/01/17 01:33:57;;;;;;;8.43;5.97;;;-2.80;92.70;;;;;;5085421;28;20261;-80
2024/01/17 01:36:24;;;;;;;10.07;6.17;;;-2.90;93.30;;;;;;5084173;28;20203;-79
2024/01/17 01:38:52;;;;;;;9.37;6.00;;;-2.90;93.40;;;;;;5086853;28;20645;-78
2024/01/17 01:41:19;;;;;;;9.77;6.43;;;-3.00;93.70;;;;;;5087497;28;20200;-80
2024/01/17 01:43:46;;;;;;;7.53;5.70;;;-3.00;94.10;;;;;;5083118;28;20204;-78
2024/01/17 01:46:15;;;;;;;9.73;6.47;;;-2.90;94.60;;;;;;5091781;28;20196;-79
2024/01/17 01:48:43;;;;;;;8.10;5.80;;;-2.70;94.60;;;;;;5093154;28;20194;-79
2024/01/17 01:51:11;;;;;;;9.43;5.63;;;-2.50;94.20;;;;;;5086947;28;20216;-79
2024/01/17 01:53:40;;;;;;;9.77;5.40;;;-2.30;94.00;;;;;;5088147;28;20193;-79
2024/01/17 01:56:10;;;;;;;7.33;5.23;;;-2.20;93.60;;;;;;5085545;28;20223;-79
2024/01/17 01:58:37;;;;;;;7.17;5.43;;;-2.30;93.50;;;;;;5085747;28;20210;-79
2024/01/17 02:01:06;;;;;;;7.47;5.27;;;-2.20;94.00;;;;;;5080673;28;20217;-80
2024/01/17 02:03:34;;;;;;;7.20;4.67;;;-2.20;94.40;;;;;;5079028;28;20192;-79
2024/01/17 02:06:02;;;;;;;7.30;5.07;;;-2.10;95.00;;;;;;5082521;28;20209;-79
2024/01/17 02:08:29;;;;;;;6.23;4.50;;;-1.80;94.50;;;;;;5082946;28;20668;-79
2024/01/17 02:10:56;;;;;;;8.17;4.83;;;-1.70;94.60;;;;;;5084102;28;20221;-79
2024/01/17 02:13:25;;;;;;;6.97;4.90;;;-1.60;95.00;;;;;;5082794;28;20227;-77
2024/01/17 02:15:52;;;;;;;6.77;4.67;;;-1.40;95.30;;;;;;5084790;28;20196;-79
2024/01/17 02:18:19;;;;;;;7.73;4.80;;;-1.40;95.20;;;;;;5087336;28;20575;-79
2024/01/17 02:20:46;;;;;;;5.87;4.43;;;-1.30;96.30;;;;;;5075792;28;20649;-79
2024/01/17 02:23:23;;;;;;;6.53;4.67;;;-1.20;95.80;;;;;;5088160;28;20572;-79
2024/01/17 02:25:52;;;;;;;7.33;4.87;;;-1.10;96.20;;;;;;5077470;28;20231;-79
2024/01/17 02:28:19;;;;;;;6.43;4.60;;;-1.10;96.60;;;;;;5081741;28;20196;-79
2024/01/17 02:30:46;;;;;;;7.20;4.80;;;-1.20;97.40;;;;;;5087118;28;20322;-79
2024/01/17 02:33:13;;;;;;;6.83;4.53;;;-1.30;98.30;;;;;;5088560;28;20208;-79
2024/01/17 02:35:40;;;;;;;7.27;5.13;;;-1.20;99.30;;;;;;5081000;28;20192;-77
2024/01/17 02:38:07;;;;;;;6.37;4.97;;;-1.00;99.10;;;;;;5088034;28;20197;-78
2024/01/17 02:40:34;;;;;;;7.53;5.00;;;-0.90;99.50;;;;;;5084905;28;20196;-80
2024/01/17 02:43:02;;;;;;;6.20;4.43;;;-0.90;99.90;;;;;;5085828;28;20199;-77
2024/01/17 02:45:29;;;;;;;6.73;4.40;;;-1.00;99.90;;;;;;5084778;28;20197;-79
2024/01/17 02:47:56;;;;;;;5.53;4.47;;;-0.80;99.90;;;;;;5086295;28;20672;-80
2024/01/17 02:50:23;;;;;;;7.30;4.23;;;-0.80;99.90;;;;;;5083558;28;20231;-79
2024/01/17 02:52:52;;;;;;;7.23;4.63;;;-0.70;99.90;;;;;;5080656;28;20200;-79
2024/01/17 02:55:20;;;;;;;9.10;4.43;;;-0.60;99.90;;;;;;5088764;28;20193;-80
2024/01/17 02:57:46;;;;;;;6.10;4.50;;;-0.50;99.90;;;;;;5082805;28;20193;-79
2024/01/17 03:00:16;;;;;;;6.00;4.33;;;-0.30;99.90;;;;;;5058011;28;20197;-80
2024/01/17 03:02:43;;;;;;;5.80;4.50;;;-0.30;99.90;;;;;;5083534;28;20661;-80
2024/01/17 03:05:10;;;;;;;5.53;4.30;;;-0.10;99.90;;;;;;5082444;28;20220;-80
2024/01/17 03:07:37;;;;;;;6.33;4.80;;;0.00;99.90;;;;;;5076406;28;20205;-79
2024/01/17 03:10:05;;;;;;;6.97;4.80;;;0.00;99.90;;;;;;5083229;28;20194;-80
2024/01/17 03:12:31;;;;;;;6.13;4.77;;;-0.10;99.90;;;;;;5089718;28;20213;-80
2024/01/17 03:14:58;;;;;;;7.20;4.80;;;-0.10;99.90;;;;;;5083548;28;20212;-79
2024/01/17 03:17:26;;;;;;;7.17;4.63;;;-0.10;99.90;;;;;;5082776;28;20204;-80
2024/01/17 03:19:54;;;;;;;5.57;4.47;;;-0.10;99.90;;;;;;5077387;28;20201;-79
2024/01/17 03:22:20;;;;;;;6.53;4.77;;;0.00;99.90;;;;;;5077818;28;20201;-80
2024/01/17 03:24:47;;;;;;;6.57;4.30;;;0.00;99.90;;;;;;5080444;28;20211;-80
2024/01/17 03:27:14;;;;;;;4.77;3.90;;;0.10;99.90;;;;;;5085400;28;20204;-80
2024/01/17 03:29:41;;;;;;;5.37;3.70;;;0.10;99.90;;;;;;5076050;28;20197;-79
2024/01/17 03:32:08;;;;;;;7.00;4.37;;;0.20;99.90;;;;;;5083315;28;20216;-80
2024/01/17 03:34:36;;;;;;;5.73;3.83;;;0.20;99.90;;;;;;5087609;28;20612;-81
2024/01/17 03:37:03;;;;;;;5.87;4.03;;;0.20;99.90;;;;;;5079284;28;20681;-79
2024/01/17 03:39:33;;;;;;;4.47;3.80;;;0.30;99.90;;;;;;5082527;28;20197;-79
2024/01/17 03:42:00;;;;;;;7.93;3.63;;;0.50;99.90;;;;;;5079258;28;20201;-79
2024/01/17 03:44:26;;;;;;;8.07;4.10;;;0.70;99.90;;;;;;5090137;28;20196;-79
2024/01/17 03:46:53;;;;;;;5.87;4.20;;;0.60;99.90;;;;;;5066096;28;20202;-79
2024/01/17 03:49:20;;;;;;;6.87;4.30;;;0.60;99.90;;;;;;5088421;28;20857;-79
2024/01/17 03:51:48;;;;;;;7.50;3.73;;;0.70;99.90;;;;;;5086875;28;20216;-79
2024/01/17 03:54:15;;;;;;;5.27;3.87;;;0.80;99.90;;;;;;5083174;28;20291;-79
2024/01/17 03:56:42;;;;;;;7.37;4.27;;;0.80;99.90;;;;;;5080174;28;20203;-79
2024/01/17 03:59:09;;;;;;;5.80;4.20;;;0.80;99.90;;;;;;5083892;28;20205;-80
2024/01/17 04:01:43;;;;;;;5.87;3.97;;;0.80;99.90;;;;;;5079091;28;20329;-80
2024/01/17 04:04:10;;;;;;;5.50;3.93;;;0.70;99.90;;;;;;5076918;28;20263;-79
2024/01/17 04:06:37;;;;;;;5.47;3.43;;;0.80;99.90;;;;;;5077104;28;20228;-80
2024/01/17 04:09:06;;;;;;;6.53;4.10;;;0.80;99.90;;;;;;5084096;28;20201;-80
2024/01/17 04:11:33;;;;;;;5.13;3.77;;;0.80;99.90;;;;;;5089285;28;20220;-79
2024/01/17 04:14:00;;;;;;;7.50;4.33;;;0.80;99.90;;;;;;5080658;28;20216;-79
2024/01/17 04:16:26;;;;;;;6.30;4.10;;;0.90;99.90;;;;;;5081247;28;20197;-80
2024/01/17 04:18:53;;;;;;;5.37;3.77;;;0.90;99.90;;;;;;5076839;28;20197;-80
2024/01/17 04:21:21;;;;;;;7.40;4.20;;;1.00;99.90;;;;;;5079910;28;20201;-79
2024/01/17 04:23:49;;;;;;;6.23;4.10;;;1.00;99.90;;;;;;5083371;28;20201;-79
2024/01/17 04:26:22;;;;;;;6.03;4.07;;;1.00;99.90;;;;;;5082439;28;20205;-79
2024/01/17 04:28:49;;;;;;;9.67;4.07;;;1.00;99.90;;;;;;5087643;28;20272;-79
2024/01/17 04:31:23;;;;;;;3.90;3.50;;;1.00;99.90;;;;;;5080587;28;20224;-80
2024/01/17 04:33:50;;;;;;;5.23;3.70;;;1.00;99.90;;;;;;5083902;28;20192;-80
2024/01/17 04:36:17;;;;;;;7.57;3.50;;;0.90;99.90;;;;;;5082119;28;20240;-80
2024/01/17 04:38:44;;;;;;;7.27;3.40;;;0.90;99.90;;;;;;5086583;28;20262;-80
2024/01/17 04:41:12;;;;;;;7.57;3.63;;;0.90;99.90;;;;;;5080208;28;20206;-80
2024/01/17 04:43:41;;;;;;;5.13;3.43;;;0.90;99.90;;;;;;5082846;28;20211;-80
2024/01/17 04:46:08;;;;;;;7.57;3.87;;;1.00;99.90;;;;;;5080948;28;20280;-79
2024/01/17 04:48:35;;;;;;;8.57;3.40;;;1.00;99.90;;;;;;5082602;28;20201;-80
2024/01/17 04:51:04;;;;;;;6.40;3.50;;;1.10;99.90;;;;;;5085798;28;20235;-80
2024/01/17 04:53:31;;;;;;;5.67;3.17;;;1.10;99.90;;;;;;5075089;28;20201;-80
2024/01/17 04:55:58;;;;;;;6.33;3.73;;;1.10;99.90;;;;;;5075669;28;20211;-80
2024/01/17 04:58:25;;;;;;;6.27;3.30;;;1.10;99.90;;;;;;5078494;28;20192;-80
2024/01/17 05:00:53;;;;;;;7.50;3.53;;;1.10;99.90;;;;;;5085481;28;20284;-80
2024/01/17 05:03:20;;;;;;;4.70;3.00;;;1.10;99.90;;;;;;5080711;28;20197;-80
2024/01/17 05:05:47;;;;;;;8.63;3.37;;;1.10;99.90;;;;;;5076991;28;20214;-79
2024/01/17 05:08:14;;;;;;;9.47;2.93;;;1.00;99.90;;;;;;5077575;28;20227;-80
2024/01/17 05:10:43;;;;;;;4.60;3.43;;;1.00;99.90;;;;;;5077962;28;20215;-80
2024/01/17 05:13:10;;;;;;;10.70;3.30;;;1.00;99.90;;;;;;5086587;28;20238;-82
2024/01/17 05:15:37;;;;;;;7.90;3.40;;;1.00;99.90;;;;;;5080829;28;20207;-79
2024/01/17 05:18:06;;;;;;;7.50;3.80;;;0.90;99.90;;;;;;5074195;28;20218;-79
2024/01/17 05:20:33;;;;;;;5.20;3.53;;;1.00;99.90;;;;;;5086054;28;20209;-80
2024/01/17 05:23:00;;;;;;;4.93;3.10;;;1.00;99.90;;;;;;5085031;28;20843;-78
2024/01/17 05:25:27;;;;;;;5.97;3.87;;;1.00;99.90;;;;;;5083835;28;21513;-80
2024/01/17 05:27:54;;;;;;;6.23;3.70;;;1.10;99.90;;;;;;5084285;28;20585;-78
2024/01/17 05:30:21;;;;;;;7.33;3.80;;;1.10;99.90;;;;;;5074975;28;20208;-79
2024/01/17 05:32:48;;;;;;;6.47;3.50;;;1.00;99.90;;;;;;5079340;28;20224;-78
2024/01/17 05:35:17;;;;;;;8.37;3.70;;;1.10;99.90;;;;;;5078660;28;20298;-81
2024/01/17 05:37:44;;;;;;;9.00;3.40;;;1.10;99.90;;;;;;5078545;28;20262;-80
2024/01/17 05:40:12;;;;;;;10.20;3.43;;;1.00;99.90;;;;;;5075832;28;20200;-80
2024/01/17 05:42:40;;;;;;;7.70;3.63;;;0.90;99.90;;;;;;5057845;28;20296;-84
2024/01/17 05:45:07;;;;;;;6.23;3.60;;;0.90;99.90;;;;;;5077098;28;20208;-83
2024/01/17 05:47:35;;;;;;;5.63;3.63;;;0.90;99.90;;;;;;5080613;28;20665;-81
2024/01/17 05:50:02;;;;;;;11.10;3.63;;;0.90;99.90;;;;;;5081625;28;20200;-82
2024/01/17 05:52:30;;;;;;;5.37;3.70;;;0.90;99.90;;;;;;5078893;28;20290;-82
2024/01/17 05:55:12;;;;;;;7.00;3.97;;;0.90;99.90;;;;;;5083030;28;20202;-82
2024/01/17 05:57:39;;;;;;;5.40;3.53;;;1.00;99.90;;;;;;5090540;28;20200;-83
2024/01/17 06:00:09;;;;;;;11.17;4.00;;;0.90;99.90;;;;;;5080037;28;20200;-83
2024/01/17 06:02:36;;;;;;;5.23;3.67;;;0.90;99.90;;;;;;5078943;28;20677;-83
2024/01/17 06:05:04;;;;;;;12.20;4.33;;;1.10;99.90;;;;;;5079165;28;20225;-83
2024/01/17 06:07:32;;;;;;;8.63;4.40;;;1.20;99.90;;;;;;5084951;28;20197;-83
2024/01/17 06:09:59;;;;;;;10.90;5.37;;;1.10;99.90;;;;;;5083702;28;20208;-82
2024/01/17 06:12:26;;;;;;;9.13;4.80;;;1.10;99.90;;;;;;5084635;28;20224;-83
2024/01/17 06:14:52;;;;;;;9.97;4.27;;;1.10;99.90;;;;;;5085693;28;20199;-80
2024/01/17 06:17:19;;;;;;;8.47;4.40;;;1.10;99.90;;;;;;5081350;28;20200;-81
2024/01/17 06:19:46;;;;;;;11.13;4.40;;;1.10;99.90;;;;;;5081860;28;20199;-80
2024/01/17 06:22:18;;;;;;;15.90;4.70;;;1.10;99.90;;;;;;5083514;28;20752;-80
2024/01/17 06:24:46;;;;;;;7.60;4.23;;;1.10;99.90;;;;;;5086365;28;20193;-79
2024/01/17 06:27:14;;;;;;;7.47;4.73;;;1.10;99.90;;;;;;5074751;28;20201;-80
2024/01/17 06:29:41;;;;;;;10.70;5.37;;;1.10;99.90;;;;;;5087399;28;20209;-79
2024/01/17 06:32:08;;;;;;;8.57;4.80;;;1.00;99.90;;;;;;5085407;28;20224;-80
2024/01/17 06:34:36;;;;;;;8.87;4.93;;;1.10;99.90;;;;;;5091325;28;20199;-81
2024/01/17 06:37:03;;;;;;;11.30;5.00;;;1.10;99.90;;;;;;5079310;28;20197;-80
2024/01/17 06:39:30;;;;;;;9.90;4.97;;;1.00;99.90;;;;;;5084294;28;20276;-81
2024/01/17 06:41:58;;;;;;;8.07;5.00;;;1.00;99.90;;;;;;5074836;28;20203;-82
2024/01/17 06:44:26;;;;;;;11.53;5.03;;;1.00;99.90;;;;;;5077481;28;20198;-81
2024/01/17 06:46:52;;;;;;;13.63;5.00;;;1.00;99.90;;;;;;5082597;28;20189;-81
2024/01/17 06:49:19;;;;;;;9.83;4.73;;;1.20;99.90;;;;;;5082175;28;20301;-82
2024/01/17 06:51:47;;;;;;;11.33;4.87;;;1.10;99.90;;;;;;5061389;28;20231;-81
2024/01/17 06:54:14;;;;;;;11.47;5.37;;;1.10;99.90;;;;;;5086727;28;20308;-82
2024/01/17 06:56:41;;;;;;;13.60;5.27;;;1.20;99.90;;;;;;5081750;28;20658;-81
2024/01/17 06:59:09;;;;;;;8.10;4.60;;;1.30;99.90;;;;;;5087972;28;20209;-80
2024/01/17 07:01:36;;;;;;;13.60;5.13;;;1.20;99.90;;;;;;5086065;28;20224;-81
2024/01/17 07:04:03;;;;;;;18.10;6.20;;;1.10;99.90;;;;;;5087064;28;20293;-81
2024/01/17 07:06:30;;;;;;;13.33;4.80;;;1.10;99.90;;;;;;5083248;28;20295;-81
2024/01/17 07:08:58;;;;;;;14.50;4.67;;;1.10;99.90;;;;;;5061276;28;20208;-80
2024/01/17 07:11:25;;;;;;;10.40;4.67;;;1.10;99.90;;;;;;5081054;28;20228;-81
2024/01/17 07:13:52;;;;;;;11.87;4.50;;;1.20;99.90;;;;;;5088041;28;20196;-81
2024/01/17 07:16:21;;;;;;;9.57;4.97;;;1.10;99.90;;;;;;5085225;28;20425;-82
2024/01/17 07:18:48;;;;;;;10.93;4.70;;;1.10;99.90;;;;;;5088533;28;20197;-79
2024/01/17 07:21:15;;;;;;;15.83;5.27;;;1.20;99.90;;;;;;5083900;28;20196;-80
2024/01/17 07:23:43;;;;;;;13.47;4.90;;;1.30;99.90;;;;;;5088159;28;20201;-81
2024/01/17 07:26:10;;;;;;;12.93;5.30;;;1.30;99.90;;;;;;5083448;28;20288;-80
2024/01/17 07:28:37;;;;;;;13.27;5.17;;;1.30;99.90;;;;;;5075962;28;20208;-82
2024/01/17 07:31:04;;;;;;;12.20;5.20;;;1.30;99.90;;;;;;5064070;28;20201;-81
2024/01/17 07:33:33;;;;;;;13.33;5.13;;;1.30;99.90;;;;;;5080818;28;20221;-78
2024/01/17 07:35:59;;;;;;;12.60;4.87;;;1.30;99.90;;;;;;5081242;28;20196;-78
2024/01/17 07:38:26;;;;;;;13.77;5.90;;;1.40;99.90;;;;;;5077635;28;20200;-79
2024/01/17 07:40:54;;;;;;;12.33;5.13;;;1.40;99.90;;;;;;5084456;28;20196;-79
2024/01/17 07:43:20;;;;;;;17.93;6.00;;;1.50;99.90;;;;;;5081220;28;20201;-81
2024/01/17 07:45:47;;;;;;;14.97;5.30;;;1.50;99.90;;;;;;5078670;28;20197;-78
2024/01/17 07:48:14;;;;;;;12.97;5.20;;;1.60;99.90;;;;;;5080690;28;20188;-78
2024/01/17 07:50:43;;;;;;;10.10;4.73;;;1.60;99.90;;;;;;5082143;28;20649;-78
2024/01/17 07:53:11;;;;;;;11.77;4.87;;;1.70;99.90;;;;;;5083122;28;20220;-76
2024/01/17 07:55:38;;;;;;;10.53;4.63;;;1.80;99.90;;;;;;5081510;28;20197;-80
2024/01/17 07:58:05;;;;;;;9.50;4.30;;;1.80;99.90;;;;;;5079433;28;20289;-78
2024/01/17 08:00:32;;;;;;;11.57;4.67;;;1.80;99.90;;;;;;5077709;28;20201;-81
2024/01/17 08:02:59;;;;;;;10.07;4.30;;;1.80;99.90;;;;;;5082145;28;20570;-80
2024/01/17 08:05:27;;;;;;;13.37;3.90;;;1.80;99.90;;;;;;5082960;28;20220;-80
2024/01/17 08:07:55;;;;;;;10.90;4.37;;;1.80;99.90;;;;;;5066593;28;20214;-81
2024/01/17 08:10:22;;;;;;;10.33;4.00;;;1.90;99.90;;;;;;5067102;28;20204;-82
2024/01/17 08:12:49;;;;;;;11.33;4.10;;;1.90;99.90;;;;;;5075192;28;20224;-82
2024/01/17 08:15:16;;;;;;;9.67;4.00;;;1.90;99.90;;;;;;5076802;28;20212;-82
2024/01/17 08:17:43;;;;;;;13.27;3.77;;;1.90;99.90;;;;;;5084804;28;20197;-82
2024/01/17 08:20:12;;;;;;;8.83;3.90;;;2.00;99.90;;;;;;5077957;28;20726;-80
2024/01/17 08:22:40;;;;;;;9.90;3.80;;;2.10;99.90;;;;;;5082892;28;20643;-80
2024/01/17 08:25:09;;;;;;;6.80;3.63;;;2.10;99.90;;;;;;5087204;28;20446;-79
2024/01/17 08:27:36;;;;;;;7.30;3.70;;;2.00;99.90;;;;;;5079379;28;20205;-80
2024/01/17 08:30:04;;;;;;;8.77;4.00;;;2.10;99.80;;;;;;5081569;28;20266;-79
2024/01/17 08:32:31;;;;;;;7.90;3.83;;;2.20;99.70;;;;;;5083594;28;20250;-80
2024/01/17 08:34:57;;;;;;;9.27;3.87;;;2.30;99.70;;;;;;5087403;28;20201;-80
2024/01/17 08:37:24;;;;;;;7.33;3.90;;;2.10;99.60;;;;;;5081682;28;20794;-80
2024/01/17 08:39:51;;;;;;;11.57;3.93;;;2.00;99.60;;;;;;5087432;28;20557;-79
2024/01/17 08:42:19;;;;;;;9.83;3.97;;;2.10;99.80;;;;;;5075521;28;20200;-79
2024/01/17 08:44:46;;;;;;;9.33;3.77;;;2.10;99.60;;;;;;5083902;28;20196;-80
2024/01/17 08:47:13;;;;;;;8.83;3.67;;;2.00;99.70;;;;;;5077808;28;20201;-79
2024/01/17 08:49:40;;;;;;;11.80;4.00;;;2.10;99.90;;;;;;5085683;28;20197;-81
2024/01/17 08:52:07;;;;;;;14.30;3.97;;;2.10;99.90;;;;;;5077985;28;20246;-80
2024/01/17 08:54:34;;;;;;;13.03;4.20;;;2.10;99.90;;;;;;5078472;28;20287;-81
2024/01/17 08:57:02;;;;;;;8.37;4.00;;;2.10;99.90;;;;;;5084114;28;20279;-81
2024/01/17 08:59:32;;;;;;;19.73;4.80;;;2.10;99.90;;;;;;5085465;28;20548;-81
2024/01/17 09:01:58;;;;;;;14.70;4.13;;;2.10;99.90;;;;;;5085276;28;20203;-82
2024/01/17 09:04:25;;;;;;;11.37;4.17;;;2.20;99.90;;;;;;5077873;28;20236;-81
2024/01/17 09:06:52;;;;;;;9.07;3.70;;;2.10;99.90;;;;;;5082956;28;20645;-82
2024/01/17 09:09:20;;;;;;;11.93;4.87;;;2.20;99.90;;;;;;5087093;28;20203;-80
2024/01/17 09:11:47;;;;;;;8.57;3.87;;;2.30;99.90;;;;;;5079850;28;20220;-82
2024/01/17 09:14:14;;;;;;;11.03;4.10;;;2.20;99.90;;;;;;5085814;28;20223;-81
2024/01/17 09:16:42;;;;;;;12.60;4.47;;;2.20;99.90;;;;;;5082998;28;20199;-81
2024/01/17 09:19:09;;;;;;;15.50;4.77;;;2.20;99.90;;;;;;5079495;28;20201;-79
2024/01/17 09:21:36;;;;;;;8.77;5.17;;;2.20;99.90;;;;;;5079630;28;20213;-82
2024/01/17 09:24:02;;;;;;;13.80;4.70;;;2.10;99.90;;;;;;5076724;28;20202;-82
2024/01/17 09:26:29;;;;;;;15.00;4.77;;;2.20;99.90;;;;;;5081655;28;20189;-82
2024/01/17 09:28:56;;;;;;;13.50;5.17;;;2.30;99.90;;;;;;5076645;28;20291;-83
2024/01/17 09:31:23;;;;;;;18.37;5.07;;;2.30;99.90;;;;;;5086710;28;20205;-82
2024/01/17 09:33:52;;;;;;;10.67;4.93;;;2.20;99.90;;;;;;5079100;28;20306;-82
2024/01/17 09:36:18;;;;;;;13.87;5.10;;;2.10;99.90;;;;;;5082647;28;20193;-82
2024/01/17 09:38:45;;;;;;;13.47;4.63;;;2.10;99.90;;;;;;5083115;28;20200;-78
2024/01/17 09:41:12;;;;;;;9.87;4.27;;;2.10;99.90;;;;;;5079599;28;20192;-80
2024/01/17 09:43:39;;;;;;;8.50;4.73;;;2.10;99.90;;;;;;5079300;28;20757;-83
2024/01/17 09:46:12;;;;;;;10.07;5.37;;;2.20;99.90;;;;;;5087088;28;20231;-84
2024/01/17 09:48:39;;;;;;;10.70;5.40;;;2.30;99.90;;;;;;5082303;28;20213;-83
2024/01/17 09:51:07;;;;;;;11.60;6.00;;;2.40;99.90;;;;;;5085381;28;20209;-83
2024/01/17 09:53:35;;;;;;;10.80;5.80;;;2.40;99.90;;;;;;5085825;28;20221;-83
2024/01/17 09:56:03;;;;;;;9.63;5.70;;;2.30;99.90;;;;;;5087220;28;20192;-83
2024/01/17 09:58:32;;;;;;;10.43;5.50;;;2.30;99.90;;;;;;5087804;28;20204;-84
2024/01/17 10:01:03;;;;;;;11.37;5.33;;;2.20;99.90;;;;;;5080862;28;20254;-80
2024/01/17 10:03:31;;;;;;;10.93;5.80;;;2.20;99.90;;;;;;5085077;28;20521;-81
2024/01/17 10:05:58;;;;;;;9.67;6.33;;;2.20;99.90;;;;;;5084557;28;20213;-84
2024/01/17 10:08:27;;;;;;;11.23;6.07;;;2.30;99.90;;;;;;5091075;28;20189;-86
2024/01/17 10:10:54;;;;;;;17.90;6.37;;;2.20;99.90;;;;;;5084562;28;20197;-84
2024/01/17 10:13:21;;;;;;;8.97;5.63;;;2.10;99.90;;;;;;5082956;28;20213;-81
2024/01/17 10:15:47;;;;;;;10.50;6.10;;;2.10;99.90;;;;;;5090710;28;20196;-82
2024/01/17 10:18:15;;;;;;;12.13;6.10;;;2.20;99.90;;;;;;5086463;28;20204;-81
2024/01/17 10:20:43;;;;;;;11.90;5.73;;;2.30;99.90;;;;;;5086751;28;20196;-83
2024/01/17 10:23:10;;;;;;;14.30;6.23;;;2.20;99.90;;;;;;5085584;28;20205;-84
2024/01/17 10:25:42;;;;;;;13.70;6.57;;;2.20;99.90;;;;;;5068983;28;20214;-85
2024/01/17 10:28:10;;;;;;;12.77;5.73;;;2.20;99.90;;;;;;5083783;28;20208;-85
2024/01/17 10:30:38;;;;;;;10.43;6.20;;;2.30;99.90;;;;;;5083389;28;20670;-85
2024/01/17 10:33:07;;;;;;;9.63;5.50;;;2.30;99.90;;;;;;5088021;28;20307;-85
2024/01/17 10:35:34;;;;;;;8.23;6.00;;;2.20;99.90;;;;;;5079485;28;20585;-84
2024/01/17 10:38:01;;;;;;;10.37;6.47;;;2.40;99.90;;;;;;5083229;28;20205;-83
2024/01/17 10:40:28;;;;;;;9.53;6.37;;;2.40;99.90;;;;;;5084107;28;20197;-83
2024/01/17 10:43:09;;;;;;;13.33;7.17;;;2.40;99.90;;;;;;5081684;28;20201;-84
2024/01/17 10:45:37;;;;;;;13.70;6.70;;;2.40;99.90;;;;;;5080461;28;20274;-85
2024/01/17 10:48:05;;;;;;;12.97;6.53;;;2.40;99.90;;;;;;5082252;28;20197;-85
2024/01/17 10:50:32;;;;;;;11.10;6.80;;;2.40;99.90;;;;;;5083237;28;20243;-85
2024/01/17 10:53:04;;;;;;;9.97;6.83;;;2.40;99.90;;;;;;5091987;28;20304;-85
2024/01/17 10:55:34;;;;;;;13.77;6.70;;;2.50;99.90;;;;;;5085650;28;20201;-85
2024/01/17 10:58:19;;;;;;;10.10;7.07;;;2.50;99.90;;;;;;5084416;28;20625;-86
2024/01/17 11:00:50;;;;;;;10.47;7.10;;;2.50;99.90;;;;;;5083400;28;20196;-87
2024/01/17 11:03:20;;;;;;;12.53;6.40;;;2.40;99.90;;;;;;5077972;28;20193;-83
2024/01/17 11:05:49;;;;;;;16.37;7.00;;;2.50;99.90;;;;;;5077884;28;20217;-84
2024/01/17 11:08:18;;;;;;;12.67;7.00;;;2.40;99.90;;;;;;5080330;28;20201;-84
2024/01/17 11:10:46;;;;;;;9.37;6.47;;;2.30;99.90;;;;;;5085937;28;20556;-84
2024/01/17 11:13:15;;;;;;;14.20;7.00;;;2.30;99.90;;;;;;5078390;28;20586;-84
2024/01/17 11:15:44;;;;;;;10.40;7.17;;;2.30;99.90;;;;;;5086169;28;21642;-85
2024/01/17 11:18:13;;;;;;;13.43;7.80;;;2.20;99.90;;;;;;5081553;28;20192;-85
2024/01/17 11:20:42;;;;;;;10.03;7.57;;;2.30;99.90;;;;;;5081657;28;20205;-83
2024/01/17 11:23:10;;;;;;;14.20;7.50;;;2.30;99.90;;;;;;5079172;28;20219;-83
2024/01/17 11:25:45;;;;;;;12.27;7.67;;;2.40;99.90;;;;;;5079990;28;20427;-85
2024/01/17 11:28:21;;;;;;;13.87;7.80;;;2.50;99.90;;;;;;5065897;28;20219;-85
2024/01/17 11:31:01;;;;;;;8.63;6.33;;;2.40;99.90;;;;;;5075726;28;20602;-85
2024/01/17 11:33:31;;;;;;;11.60;7.37;;;2.50;99.90;;;;;;5075920;28;20236;-86
2024/01/17 11:35:58;;;;;;;10.77;7.07;;;2.50;99.90;;;;;;5079148;28;20197;-83
2024/01/17 11:38:32;;;;;;;13.43;7.73;;;2.50;99.90;;;;;;5082038;28;20192;-83
2024/01/17 11:41:02;;;;;;;13.10;7.77;;;2.40;99.90;;;;;;5081969;28;20200;-82
2024/01/17 11:43:31;;;;;;;14.83;8.00;;;2.50;99.90;;;;;;5080105;28;20208;-82
2024/01/17 11:45:59;;;;;;;12.63;7.67;;;2.60;99.90;;;;;;5081724;28;20252;-83
2024/01/17 11:48:27;;;;;;;12.40;7.20;;;2.60;99.90;;;;;;5077051;28;20231;-83
2024/01/17 11:51:00;;;;;;;8.90;6.90;;;2.60;99.90;;;;;;5080973;28;20204;-82
2024/01/17 11:53:28;;;;;;;11.57;6.93;;;2.70;99.90;;;;;;5079562;28;20213;-82
2024/01/17 11:55:56;;;;;;;11.67;7.10;;;2.70;99.90;;;;;;5078926;28;20199;-81
2024/01/17 11:58:38;;;;;;;11.20;6.73;;;2.70;99.90;;;;;;5079679;28;20233;-82
2024/01/17 12:01:05;;;;;;;9.87;6.53;;;2.70;99.90;;;;;;5084344;28;20185;-82
2024/01/17 12:03:32;;;;;;;11.87;6.20;;;2.80;99.90;;;;;;5087680;28;20202;-81
2024/01/17 12:06:01;;;;;;;8.47;5.60;;;2.90;99.90;;;;;;5081238;28;20201;-84
2024/01/17 12:08:29;;;;;;;11.53;5.47;;;3.00;99.90;;;;;;5086108;28;20204;-84
2024/01/17 12:10:57;;;;;;;11.93;5.60;;;3.10;99.90;;;;;;5087262;28;20360;-83
2024/01/17 12:13:24;;;;;;;7.70;5.17;;;3.10;99.90;;;;;;5083108;28;20216;-83
2024/01/17 12:15:54;;;;;;;7.00;4.17;;;3.20;99.90;;;;;;5066135;28;20208;-83
2024/01/17 12:18:22;;;;;;;6.90;4.23;;;3.30;99.90;;;;;;5077994;28;20200;-84
2024/01/17 12:20:49;;;;;;;8.17;4.60;;;3.20;99.90;;;;;;5077833;28;20199;-84
2024/01/17 12:23:19;;;;;;;7.77;4.50;;;3.30;99.90;;;;;;5078378;28;20204;-84
2024/01/17 12:25:46;;;;;;;7.27;4.33;;;3.40;99.90;;;;;;5081868;28;20200;-84
2024/01/17 12:28:19;;;;;;;7.03;4.37;;;3.40;99.90;;;;;;5081075;28;20193;-83
2024/01/17 12:30:56;;;;;;;10.13;4.23;;;3.30;99.90;;;;;;5080599;28;20213;-84
2024/01/17 12:33:24;;;;;;;10.67;4.23;;;3.30;99.90;;;;;;5075008;28;20266;-84
2024/01/17 12:35:51;;;;;;;8.30;4.37;;;3.30;99.90;;;;;;5088364;28;20197;-83
2024/01/17 12:38:19;;;;;;;10.50;4.07;;;3.30;99.90;;;;;;5082677;28;20205;-86
2024/01/17 12:40:48;;;;;;;8.30;4.50;;;3.40;99.90;;;;;;5077952;28;20200;-85
2024/01/17 12:43:17;;;;;;;13.57;4.50;;;3.50;99.90;;;;;;5064174;28;20200;-85
2024/01/17 12:45:46;;;;;;;6.33;4.00;;;3.50;99.90;;;;;;5089453;28;20189;-85
2024/01/17 12:48:15;;;;;;;8.87;4.10;;;3.60;99.90;;;;;;5070638;28;20595;-90
2024/01/17 12:50:47;;;;;;;6.27;3.60;;;3.60;99.90;;;;;;5067023;28;20193;-84
2024/01/17 12:53:15;;;;;;;9.73;4.00;;;3.60;99.90;;;;;;5077173;28;20200;-83